Fort Bliss, Texas
Current Conditions -  °F | °C
As of 5:58 AM on Saturday 25 Oct 2014 (Local Time) from KBIF Reporting Station
Clear Clear  
Wind Chill: 52°   Ceiling: Unl
Heat Index: 52°   Visibility: 10mi
Dew Point: 49°   Wind: 3mph
Humidity: 90%   Direction: 320°NW
Pressure: 30.21"   Gusts: NA
Location:  31.8335°N, 106.423°W
Report Text: KBIF 251158Z AUTO 32003KT 10SM CLR 11/10 A3021 RMK AO2 SLP181 T01100095 10175 20110 55000
Loading
Personal Weather Stations






























Interactive Weather Map
Tropical Storm Tracking
New forecast layout! Learn more

10-Day Weather Forecast

Advertisements
Track Severe Weather on mobile